Time;durP1;ratioP1;P1;durP2;ratioP2;P2;SDS_P1;SDS_P2;PMS_P1;PMS_P2;Temp;Humidity;BMP_temperature;BMP_pressure;BME280_temperature;BME280_humidity;BME280_pressure;Samples;Min_cycle;Max_cycle;Signal;HPM_P1;HPM_P2
2021/03/09 00:00:58;;;;;;;19.88;11.38;;;-0.80;85.50;;;;;;2032734;28;20051;-72
2021/03/09 00:01:59;;;;;;;18.27;11.18;;;-0.80;85.90;;;;;;2032590;28;20035;-73
2021/03/09 00:03:00;;;;;;;19.45;11.63;;;-0.80;85.80;;;;;;2033124;28;20036;-73
2021/03/09 00:04:00;;;;;;;18.50;10.77;;;-0.90;85.80;;;;;;2033190;28;20059;-73
2021/03/09 00:05:02;;;;;;;17.55;11.05;;;-0.80;85.80;;;;;;2033167;28;20036;-72
2021/03/09 00:06:02;;;;;;;18.65;11.00;;;-0.80;85.80;;;;;;2033076;29;20518;-72
2021/03/09 00:07:03;;;;;;;21.73;11.00;;;-0.80;85.50;;;;;;2032446;28;20028;-73
2021/03/09 00:08:04;;;;;;;16.23;9.90;;;-0.80;85.40;;;;;;2032607;29;20029;-72
2021/03/09 00:09:07;;;;;;;15.85;9.70;;;-0.80;85.30;;;;;;2033144;29;20391;-71
2021/03/09 00:10:09;;;;;;;15.60;9.30;;;-0.80;85.20;;;;;;2033158;29;20021;-71
2021/03/09 00:11:12;;;;;;;14.38;9.07;;;-0.80;85.10;;;;;;2032233;28;20426;-71
2021/03/09 00:12:13;;;;;;;15.30;9.20;;;-0.80;85.20;;;;;;2032088;29;20035;-72
2021/03/09 00:13:13;;;;;;;13.63;9.05;;;-0.80;85.00;;;;;;2033111;28;20032;-71
2021/03/09 00:14:14;;;;;;;13.98;8.73;;;-0.80;85.00;;;;;;2033093;28;20024;-73
2021/03/09 00:15:14;;;;;;;14.55;9.00;;;-0.80;84.90;;;;;;2032972;28;20063;-73
2021/03/09 00:16:15;;;;;;;13.95;9.10;;;-0.80;84.80;;;;;;2032354;28;20107;-73
2021/03/09 00:17:15;;;;;;;14.82;8.45;;;-0.80;84.80;;;;;;2033426;29;20040;-73
2021/03/09 00:18:16;;;;;;;12.63;8.23;;;-0.80;84.80;;;;;;2032963;29;20032;-73
2021/03/09 00:19:17;;;;;;;14.65;8.77;;;-0.80;84.90;;;;;;2033069;28;20024;-72
2021/03/09 00:20:17;;;;;;;14.05;8.60;;;-0.80;85.10;;;;;;2033004;28;20032;-72
2021/03/09 00:21:18;;;;;;;16.90;10.00;;;-0.80;85.10;;;;;;2032156;28;20119;-73
2021/03/09 00:22:18;;;;;;;16.75;8.93;;;-0.80;85.10;;;;;;2032979;28;20049;-73
2021/03/09 00:23:19;;;;;;;14.48;8.93;;;-0.80;85.10;;;;;;2040197;28;20035;-73
2021/03/09 00:24:20;;;;;;;12.70;8.57;;;-0.80;84.90;;;;;;2040051;29;20509;-73
2021/03/09 00:25:20;;;;;;;14.25;8.77;;;-0.80;84.80;;;;;;2032980;28;20775;-73
2021/03/09 00:26:21;;;;;;;15.15;8.82;;;-0.80;84.80;;;;;;2032423;28;20048;-72
2021/03/09 00:27:21;;;;;;;13.63;8.63;;;-0.80;85.10;;;;;;2032333;29;20038;-72
2021/03/09 00:28:22;;;;;;;13.30;9.00;;;-0.80;85.20;;;;;;2032118;28;20624;-72
2021/03/09 00:29:23;;;;;;;13.38;8.73;;;-0.80;85.10;;;;;;2024356;29;20037;-73
2021/03/09 00:30:23;;;;;;;15.10;9.02;;;-0.80;85.10;;;;;;2032138;28;20475;-73
2021/03/09 00:31:24;;;;;;;15.75;8.75;;;-0.80;85.10;;;;;;2023552;29;20040;-72
2021/03/09 00:32:25;;;;;;;13.70;8.38;;;-0.80;85.30;;;;;;2032297;29;20074;-72
2021/03/09 00:33:26;;;;;;;14.52;8.93;;;-0.80;85.30;;;;;;2032293;28;20028;-73
2021/03/09 00:34:26;;;;;;;15.82;8.98;;;-0.80;85.20;;;;;;2032206;29;20032;-73
2021/03/09 00:35:27;;;;;;;15.60;8.95;;;-0.80;85.10;;;;;;2032944;28;20028;-73
2021/03/09 00:36:27;;;;;;;15.25;9.10;;;-0.80;84.90;;;;;;2032883;28;20484;-72
2021/03/09 00:37:28;;;;;;;13.00;8.32;;;-0.90;84.90;;;;;;2024447;28;20040;-72
2021/03/09 00:38:28;;;;;;;14.73;8.63;;;-0.80;85.10;;;;;;2016572;28;20412;-72
2021/03/09 00:39:29;;;;;;;14.77;8.80;;;-0.80;85.10;;;;;;2032137;29;20100;-72
2021/03/09 00:40:29;;;;;;;13.93;8.70;;;-0.80;85.10;;;;;;2031846;28;20034;-72
2021/03/09 00:41:30;;;;;;;14.23;8.63;;;-0.80;85.10;;;;;;2031790;29;20522;-72
2021/03/09 00:42:30;;;;;;;13.20;8.38;;;-0.80;85.10;;;;;;2032775;29;20493;-73
2021/03/09 00:43:31;;;;;;;13.15;8.32;;;-0.80;85.10;;;;;;2039967;28;20410;-72
2021/03/09 00:44:32;;;;;;;12.98;8.40;;;-0.80;85.10;;;;;;2039896;29;20487;-72
2021/03/09 00:45:32;;;;;;;15.75;9.13;;;-0.90;85.10;;;;;;2032330;29;20070;-73
2021/03/09 00:46:33;;;;;;;13.80;8.57;;;-0.90;85.20;;;;;;2032794;28;20095;-72
2021/03/09 00:47:33;;;;;;;14.77;9.02;;;-0.90;85.30;;;;;;2032823;28;20024;-73
2021/03/09 00:48:38;;;;;;;14.88;9.00;;;-0.90;85.20;;;;;;2032808;28;20100;-73
2021/03/09 00:49:38;;;;;;;14.82;8.85;;;-0.90;85.30;;;;;;2032713;29;20103;-72
2021/03/09 00:50:39;;;;;;;15.13;9.00;;;-0.90;85.20;;;;;;2032441;28;20020;-73
2021/03/09 00:51:39;;;;;;;14.18;8.73;;;-0.90;85.00;;;;;;2032189;28;20482;-71
2021/03/09 00:52:40;;;;;;;14.85;8.30;;;-0.90;85.20;;;;;;2032600;28;20167;-71
2021/03/09 00:53:41;;;;;;;14.20;8.65;;;-0.90;85.30;;;;;;2032831;28;20024;-71
2021/03/09 00:54:41;;;;;;;14.70;8.82;;;-0.90;85.40;;;;;;2032673;28;20052;-71
2021/03/09 00:55:42;;;;;;;13.82;8.25;;;-0.90;85.40;;;;;;2032770;28;20816;-71
2021/03/09 00:56:42;;;;;;;14.43;9.10;;;-0.90;85.50;;;;;;2032772;28;20024;-71
2021/03/09 00:57:43;;;;;;;14.93;9.27;;;-0.90;85.50;;;;;;2032779;28;20020;-71
2021/03/09 00:58:44;;;;;;;15.20;9.20;;;-0.90;85.60;;;;;;2032870;28;20472;-71
2021/03/09 00:59:44;;;;;;;16.52;9.98;;;-0.90;85.70;;;;;;2032142;28;20115;-71
2021/03/09 01:00:45;;;;;;;14.18;9.75;;;-0.90;86.00;;;;;;2031597;29;20024;-72
2021/03/09 01:01:45;;;;;;;18.33;10.70;;;-0.90;86.00;;;;;;2032153;29;20027;-71
2021/03/09 01:02:46;;;;;;;20.15;10.80;;;-0.90;86.10;;;;;;2032491;28;20043;-71
2021/03/09 01:03:47;;;;;;;19.60;11.45;;;-0.90;86.20;;;;;;2031774;28;20024;-72
2021/03/09 01:04:47;;;;;;;17.95;10.88;;;-1.00;86.30;;;;;;2032935;28;20383;-71
2021/03/09 01:05:48;;;;;;;17.98;11.20;;;-1.00;86.50;;;;;;2032948;28;20028;-71
2021/03/09 01:06:48;;;;;;;17.85;11.25;;;-1.00;86.60;;;;;;2032914;28;20020;-71
2021/03/09 01:07:49;;;;;;;21.88;12.23;;;-1.00;86.80;;;;;;2033050;28;20475;-71
2021/03/09 01:08:50;;;;;;;18.40;11.57;;;-1.00;86.90;;;;;;2032867;29;20031;-71
2021/03/09 01:09:50;;;;;;;21.00;12.18;;;-1.00;87.00;;;;;;2032934;28;20040;-71
2021/03/09 01:10:51;;;;;;;20.38;12.05;;;-1.00;87.90;;;;;;2032200;28;20028;-73
2021/03/09 01:11:52;;;;;;;19.83;12.55;;;-1.00;87.20;;;;;;2032247;28;20533;-72
2021/03/09 01:12:52;;;;;;;20.75;12.73;;;-1.00;87.30;;;;;;2039833;28;20027;-71
2021/03/09 01:13:53;;;;;;;19.85;13.02;;;-1.00;87.30;;;;;;2039925;29;20039;-73
2021/03/09 01:14:53;;;;;;;21.25;13.63;;;-1.00;87.40;;;;;;2032565;28;20478;-73
2021/03/09 01:15:54;;;;;;;23.85;13.18;;;-1.00;87.50;;;;;;2039883;28;20028;-73
2021/03/09 01:16:55;;;;;;;21.48;13.25;;;-1.00;87.60;;;;;;2039786;29;20035;-73
2021/03/09 01:17:55;;;;;;;20.90;13.05;;;-1.00;87.80;;;;;;2032590;28;20119;-73
2021/03/09 01:18:56;;;;;;;21.48;12.68;;;-1.00;87.80;;;;;;2031913;28;20028;-71
2021/03/09 01:19:56;;;;;;;22.55;12.95;;;-1.00;87.80;;;;;;2024258;28;20025;-71
2021/03/09 01:20:57;;;;;;;19.65;12.43;;;-1.00;87.70;;;;;;2031446;29;20036;-71
2021/03/09 01:21:58;;;;;;;22.33;12.55;;;-1.00;87.80;;;;;;2032164;29;20028;-72
2021/03/09 01:22:58;;;;;;;20.45;12.73;;;-1.00;87.80;;;;;;2032991;28;20094;-72
2021/03/09 01:23:59;;;;;;;19.77;12.05;;;-1.00;87.60;;;;;;2033016;28;20082;-71
2021/03/09 01:24:59;;;;;;;19.00;11.43;;;-1.00;87.70;;;;;;2033023;28;20040;-72
2021/03/09 01:26:00;;;;;;;17.40;10.60;;;-1.00;87.50;;;;;;2033163;29;20453;-73
2021/03/09 01:27:01;;;;;;;17.45;10.73;;;-1.00;87.30;;;;;;2032567;28;20039;-72
2021/03/09 01:28:01;;;;;;;17.58;10.68;;;-1.00;87.20;;;;;;2031911;28;20040;-72
2021/03/09 01:29:02;;;;;;;15.18;9.20;;;-1.00;87.10;;;;;;2031860;29;20052;-72
2021/03/09 01:30:05;;;;;;;15.60;9.32;;;-1.00;86.80;;;;;;2032520;29;20487;-71
2021/03/09 01:31:05;;;;;;;15.35;8.98;;;-1.00;86.70;;;;;;2039402;29;20043;-73
2021/03/09 01:32:07;;;;;;;14.48;8.60;;;-1.00;86.60;;;;;;2039481;29;20028;-73
2021/03/09 01:33:07;;;;;;;13.30;8.45;;;-1.00;86.40;;;;;;2032015;28;20031;-73
2021/03/09 01:34:08;;;;;;;15.38;8.82;;;-1.00;86.30;;;;;;2032185;29;20036;-73
2021/03/09 01:35:09;;;;;;;12.57;7.93;;;-1.00;86.10;;;;;;2032771;29;20068;-73
2021/03/09 01:36:10;;;;;;;12.18;8.15;;;-1.00;86.00;;;;;;2032689;29;20387;-74
2021/03/09 01:37:10;;;;;;;14.48;8.20;;;-1.00;86.00;;;;;;2032597;28;20036;-74
2021/03/09 01:38:11;;;;;;;14.57;8.23;;;-1.00;86.10;;;;;;2032531;28;20051;-73
2021/03/09 01:39:13;;;;;;;15.13;8.13;;;-1.00;86.20;;;;;;2032552;29;20028;-74
2021/03/09 01:40:14;;;;;;;14.57;8.60;;;-1.00;86.20;;;;;;2032541;29;20123;-73
2021/03/09 01:41:15;;;;;;;17.40;8.70;;;-1.00;86.20;;;;;;2032032;29;20032;-74
2021/03/09 01:42:15;;;;;;;19.75;9.07;;;-1.00;86.30;;;;;;2031800;28;20484;-73
2021/03/09 01:43:16;;;;;;;16.77;8.77;;;-1.00;86.30;;;;;;2031781;29;20064;-73
2021/03/09 01:44:17;;;;;;;16.73;9.05;;;-1.00;86.20;;;;;;2039781;29;20139;-73
2021/03/09 01:45:18;;;;;;;16.13;8.57;;;-1.00;86.30;;;;;;2039957;29;20149;-73
2021/03/09 01:46:19;;;;;;;17.33;8.65;;;-1.00;86.30;;;;;;2024446;28;20056;-73
2021/03/09 01:47:20;;;;;;;14.88;8.55;;;-1.00;86.30;;;;;;2024853;29;20043;-73
2021/03/09 01:48:25;;;;;;;17.05;8.60;;;-1.00;86.30;;;;;;2033890;28;20454;-74
2021/03/09 01:49:29;;;;;;;17.55;8.93;;;-1.00;86.30;;;;;;2034395;29;20029;-74
2021/03/09 01:50:34;;;;;;;16.42;8.85;;;-1.00;86.20;;;;;;2034783;29;20071;-73
2021/03/09 01:51:36;;;;;;;27.50;11.25;;;-1.00;86.20;;;;;;2037840;29;20044;-73
2021/03/09 01:52:37;;;;;;;27.60;11.50;;;-1.10;85.90;;;;;;2038430;29;20024;-73
2021/03/09 01:53:38;;;;;;;23.17;10.85;;;-1.10;85.90;;;;;;2038773;29;20013;-72
2021/03/09 01:54:40;;;;;;;20.13;9.75;;;-1.10;85.90;;;;;;2035865;28;20028;-72
2021/03/09 01:55:41;;;;;;;19.73;9.40;;;-1.10;85.80;;;;;;2035922;29;20035;-73
2021/03/09 01:56:42;;;;;;;15.00;8.60;;;-1.10;85.60;;;;;;2044560;29;20079;-73
2021/03/09 01:57:43;;;;;;;14.82;8.20;;;-1.10;85.50;;;;;;2045720;29;20059;-73
2021/03/09 01:58:48;;;;;;;14.95;8.60;;;-1.10;85.60;;;;;;2040440;28;20028;-73
2021/03/09 01:59:50;;;;;;;13.80;8.00;;;-1.10;85.80;;;;;;2039544;29;20032;-73
2021/03/09 02:00:51;;;;;;;13.30;7.90;;;-1.10;85.90;;;;;;2036144;28;20028;-73
2021/03/09 02:01:52;;;;;;;13.95;8.00;;;-1.10;85.90;;;;;;2035055;28;20029;-73
2021/03/09 02:02:53;;;;;;;11.55;7.72;;;-1.10;85.80;;;;;;2034882;28;20036;-73
2021/03/09 02:03:54;;;;;;;14.05;8.00;;;-1.10;85.80;;;;;;2033567;29;20024;-74
2021/03/09 02:04:54;;;;;;;15.48;8.18;;;-1.10;85.90;;;;;;2034121;28;20399;-73
2021/03/09 02:05:55;;;;;;;12.25;8.05;;;-1.10;86.00;;;;;;2034561;28;20035;-73
2021/03/09 02:06:55;;;;;;;15.00;8.48;;;-1.10;86.00;;;;;;2033286;28;20082;-73
2021/03/09 02:07:56;;;;;;;16.40;8.63;;;-1.10;86.00;;;;;;2033069;28;20043;-73
2021/03/09 02:08:57;;;;;;;16.40;8.82;;;-1.10;86.00;;;;;;2032993;28;20064;-73
2021/03/09 02:09:57;;;;;;;14.52;8.48;;;-1.10;86.00;;;;;;2032761;28;20021;-73
2021/03/09 02:10:58;;;;;;;15.88;8.70;;;-1.00;86.10;;;;;;2032000;28;20542;-73
2021/03/09 02:12:27;;;;;;;14.82;8.57;;;-1.00;85.90;;;;;;2032137;28;20033;-73
2021/03/09 02:13:42;;;;;;;21.70;9.93;;;-1.00;85.80;;;;;;2032751;29;20577;-73
2021/03/09 02:15:16;;;;;;;23.73;10.35;;;-1.00;85.90;;;;;;2039324;28;20039;-73
2021/03/09 02:16:25;;;;;;;27.10;12.05;;;-1.10;85.80;;;;;;2035992;29;20067;-73
2021/03/09 02:17:31;;;;;;;27.08;12.05;;;-1.10;85.80;;;;;;2032591;29;20024;-73
2021/03/09 02:18:46;;;;;;;29.60;13.00;;;-1.10;86.00;;;;;;2032527;28;20032;-73
2021/03/09 02:20:24;;;;;;;27.60;12.45;;;-1.10;86.00;;;;;;2032637;28;20039;-73
2021/03/09 02:22:03;;;;;;;26.15;11.80;;;-1.10;86.20;;;;;;2038957;28;20035;-72
2021/03/09 02:23:40;;;;;;;24.17;11.07;;;-1.10;86.50;;;;;;2056005;28;20600;-73
2021/03/09 02:24:54;;;;;;;20.52;9.82;;;-1.10;86.70;;;;;;2032294;28;20111;-73
2021/03/09 02:26:32;;;;;;;21.02;10.45;;;-1.20;86.80;;;;;;2032425;28;20046;-73
2021/03/09 02:27:52;;;;;;;22.75;10.68;;;-1.20;86.80;;;;;;2032352;29;20029;-72
2021/03/09 02:28:58;;;;;;;22.23;11.20;;;-1.20;86.80;;;;;;2023851;28;20605;-73
2021/03/09 02:30:14;;;;;;;25.33;11.30;;;-1.20;86.90;;;;;;2024707;28;20040;-73
2021/03/09 02:31:16;;;;;;;24.20;10.98;;;-1.20;87.00;;;;;;2031231;29;20042;-73
2021/03/09 02:32:22;;;;;;;23.20;10.52;;;-1.20;87.20;;;;;;2032411;29;20078;-73
2021/03/09 02:33:33;;;;;;;19.90;9.88;;;-1.20;87.20;;;;;;2032363;29;20059;-73
2021/03/09 02:34:42;;;;;;;24.48;10.73;;;-1.30;87.30;;;;;;2032299;29;20020;-72
2021/03/09 02:35:51;;;;;;;23.95;11.23;;;-1.30;87.30;;;;;;2032392;29;20024;-73
2021/03/09 02:36:54;;;;;;;21.17;10.07;;;-1.30;87.20;;;;;;2032266;29;20062;-73
2021/03/09 02:37:59;;;;;;;20.33;9.40;;;-1.30;87.30;;;;;;2032425;29;20028;-73
2021/03/09 02:39:03;;;;;;;16.05;8.63;;;-1.30;87.30;;;;;;2032329;29;20187;-73
2021/03/09 02:40:09;;;;;;;16.38;8.70;;;-1.30;87.20;;;;;;2032312;29;20059;-73
2021/03/09 02:41:11;;;;;;;13.18;8.35;;;-1.30;87.20;;;;;;2039020;29;20057;-73
2021/03/09 02:42:18;;;;;;;14.70;8.25;;;-1.30;87.30;;;;;;2038754;29;20070;-73
2021/03/09 02:43:19;;;;;;;15.90;8.73;;;-1.30;87.30;;;;;;2039311;29;20430;-73
2021/03/09 02:44:22;;;;;;;15.15;8.50;;;-1.30;87.30;;;;;;2039372;29;20099;-73
2021/03/09 02:45:24;;;;;;;14.80;8.30;;;-1.30;87.30;;;;;;2031503;28;20032;-73
2021/03/09 02:46:28;;;;;;;15.43;8.57;;;-1.30;87.30;;;;;;2031576;29;20051;-73
2021/03/09 02:47:30;;;;;;;18.75;9.57;;;-1.30;87.30;;;;;;2039464;28;20042;-73
2021/03/09 02:48:32;;;;;;;20.88;9.68;;;-1.30;87.20;;;;;;2039232;29;20072;-72
2021/03/09 02:49:34;;;;;;;21.67;10.40;;;-1.30;87.30;;;;;;2032112;29;20475;-73
2021/03/09 02:50:35;;;;;;;25.50;10.50;;;-1.30;87.30;;;;;;2031276;29;20028;-73
2021/03/09 02:51:38;;;;;;;25.33;11.32;;;-1.30;87.40;;;;;;2031248;29;20063;-73
2021/03/09 02:52:41;;;;;;;27.15;11.23;;;-1.30;87.50;;;;;;2032456;29;20048;-73
2021/03/09 02:53:47;;;;;;;26.15;10.95;;;-1.30;87.40;;;;;;2024126;29;20119;-73
2021/03/09 02:54:50;;;;;;;24.13;10.70;;;-1.30;87.30;;;;;;2017801;29;20018;-73
2021/03/09 02:55:51;;;;;;;20.23;10.00;;;-1.30;87.30;;;;;;2031655;29;20134;-73
2021/03/09 02:56:52;;;;;;;20.30;9.50;;;-1.30;87.30;;;;;;2032355;29;20035;-73
2021/03/09 02:57:54;;;;;;;24.38;10.57;;;-1.30;87.10;;;;;;2032297;28;20107;-73
2021/03/09 02:58:57;;;;;;;24.02;10.45;;;-1.30;87.20;;;;;;2032028;29;20068;-73
2021/03/09 02:59:58;;;;;;;22.23;9.82;;;-1.30;87.30;;;;;;2032145;29;20024;-73
2021/03/09 03:01:00;;;;;;;22.55;10.05;;;-1.30;87.40;;;;;;2031655;29;20038;-73
2021/03/09 03:02:01;;;;;;;23.48;10.00;;;-1.30;87.50;;;;;;2031692;29;20103;-74
2021/03/09 03:03:06;;;;;;;31.92;11.40;;;-1.30;87.60;;;;;;2032071;28;20056;-73
2021/03/09 03:04:09;;;;;;;28.88;11.30;;;-1.30;87.60;;;;;;2032158;29;20028;-73
2021/03/09 03:05:11;;;;;;;30.05;11.82;;;-1.30;87.50;;;;;;2033121;29;20402;-73
2021/03/09 03:06:13;;;;;;;23.48;10.75;;;-1.30;87.50;;;;;;2033849;29;20066;-72
2021/03/09 03:07:15;;;;;;;21.55;9.90;;;-1.30;87.50;;;;;;2033815;29;20103;-73
2021/03/09 03:08:16;;;;;;;20.90;10.15;;;-1.30;87.60;;;;;;2031971;29;20107;-73
2021/03/09 03:09:19;;;;;;;24.58;10.68;;;-1.30;87.70;;;;;;2039641;28;20410;-73
2021/03/09 03:10:20;;;;;;;21.98;10.25;;;-1.30;87.40;;;;;;2039029;28;20546;-73
2021/03/09 03:11:21;;;;;;;25.25;11.18;;;-1.30;87.40;;;;;;2030533;29;20048;-73
2021/03/09 03:12:22;;;;;;;23.67;10.45;;;-1.30;87.40;;;;;;2031919;29;20107;-73
2021/03/09 03:13:25;;;;;;;17.80;9.75;;;-1.30;87.50;;;;;;2032123;28;20036;-73
2021/03/09 03:14:27;;;;;;;15.82;9.15;;;-1.30;87.50;;;;;;2032057;29;20487;-73
2021/03/09 03:15:28;;;;;;;16.17;9.13;;;-1.30;87.50;;;;;;2031935;29;20035;-73
2021/03/09 03:16:30;;;;;;;17.98;9.45;;;-1.30;87.50;;;;;;2031921;29;20688;-74
2021/03/09 03:17:32;;;;;;;14.68;8.80;;;-1.30;87.30;;;;;;2031929;29;20043;-73
2021/03/09 03:18:39;;;;;;;16.05;9.13;;;-1.30;87.40;;;;;;2031933;29;20032;-76
2021/03/09 03:19:41;;;;;;;14.45;9.02;;;-1.30;87.40;;;;;;2031926;29;20471;-73
2021/03/09 03:20:43;;;;;;;15.07;9.38;;;-1.30;87.30;;;;;;2031489;29;20063;-73
2021/03/09 03:21:44;;;;;;;15.27;8.77;;;-1.30;87.20;;;;;;2031373;29;20155;-73
2021/03/09 03:22:47;;;;;;;14.52;8.93;;;-1.30;87.20;;;;;;2031945;28;20487;-73
2021/03/09 03:23:49;;;;;;;13.45;8.60;;;-1.30;87.30;;;;;;2039050;29;20036;-75
2021/03/09 03:24:51;;;;;;;14.43;9.57;;;-1.30;87.20;;;;;;2039086;29;20024;-73
2021/03/09 03:25:54;;;;;;;15.88;9.15;;;-1.30;87.00;;;;;;2031851;29;20475;-73
2021/03/09 03:26:56;;;;;;;16.05;9.18;;;-1.30;87.00;;;;;;2032312;29;20025;-73
2021/03/09 03:27:57;;;;;;;14.38;8.52;;;-1.30;87.00;;;;;;2033269;29;20468;-73
2021/03/09 03:29:00;;;;;;;13.55;8.43;;;-1.30;87.00;;;;;;2033158;29;20040;-73
2021/03/09 03:30:00;;;;;;;13.85;8.52;;;-1.30;87.00;;;;;;2033215;29;20040;-73
2021/03/09 03:31:03;;;;;;;12.65;8.10;;;-1.30;87.10;;;;;;2032674;28;20050;-74
2021/03/09 03:32:04;;;;;;;13.82;8.50;;;-1.30;87.00;;;;;;2032764;29;20483;-73
2021/03/09 03:33:05;;;;;;;14.73;8.48;;;-1.30;87.00;;;;;;2033062;29;20032;-73
2021/03/09 03:34:06;;;;;;;14.10;8.55;;;-1.30;87.10;;;;;;2033260;29;20068;-71
2021/03/09 03:35:09;;;;;;;13.63;8.77;;;-1.30;87.90;;;;;;2033395;28;20032;-73
2021/03/09 03:36:10;;;;;;;15.30;8.68;;;-1.40;87.30;;;;;;2033234;29;20087;-71
2021/03/09 03:37:14;;;;;;;16.17;8.80;;;-1.30;87.60;;;;;;2032742;28;20074;-71
2021/03/09 03:38:14;;;;;;;16.60;9.38;;;-1.30;87.60;;;;;;2032985;29;20036;-71
2021/03/09 03:39:15;;;;;;;16.27;9.48;;;-1.40;87.80;;;;;;2033279;29;20043;-71
2021/03/09 03:40:19;;;;;;;15.52;9.00;;;-1.40;87.80;;;;;;2033215;29;20059;-72
2021/03/09 03:41:20;;;;;;;15.27;9.35;;;-1.40;88.00;;;;;;2032357;29;20555;-71
2021/03/09 03:42:21;;;;;;;16.60;9.93;;;-1.40;88.00;;;;;;2032898;29;20070;-71
2021/03/09 03:43:22;;;;;;;15.70;9.35;;;-1.40;88.80;;;;;;2033234;28;20123;-71
2021/03/09 03:44:22;;;;;;;16.40;9.77;;;-1.40;88.20;;;;;;2033285;28;20573;-73
2021/03/09 03:45:24;;;;;;;14.93;9.65;;;-1.40;88.20;;;;;;2033264;28;20032;-72
2021/03/09 03:46:25;;;;;;;16.38;10.15;;;-1.50;88.30;;;;;;2040547;28;20042;-72
2021/03/09 03:47:26;;;;;;;15.65;9.45;;;-1.50;88.40;;;;;;2040872;29;20068;-71
2021/03/09 03:48:30;;;;;;;16.80;9.68;;;-1.50;88.60;;;;;;2033378;28;20037;-70
2021/03/09 03:49:31;;;;;;;18.15;9.85;;;-1.50;88.60;;;;;;2033576;29;20050;-71
2021/03/09 03:50:32;;;;;;;16.63;9.57;;;-1.50;88.60;;;;;;2033190;28;20043;-71
2021/03/09 03:51:39;;;;;;;14.07;9.55;;;-1.50;88.60;;;;;;2034395;29;20032;-71
2021/03/09 03:52:56;;;;;;;15.13;9.55;;;-1.50;88.60;;;;;;2042477;29;20082;-71
2021/03/09 03:54:15;;;;;;;16.05;9.88;;;-1.50;88.80;;;;;;2040668;29;20024;-72
2021/03/09 03:55:48;;;;;;;17.05;9.60;;;-1.50;88.90;;;;;;2041993;28;20468;-71
2021/03/09 03:57:07;;;;;;;16.75;9.88;;;-1.50;89.00;;;;;;2038216;29;20084;-71
2021/03/09 03:58:32;;;;;;;17.00;9.60;;;-1.50;88.90;;;;;;2041285;29;20034;-71
2021/03/09 03:59:38;;;;;;;16.27;9.40;;;-1.50;89.00;;;;;;2037763;29;20031;-71
2021/03/09 04:00:40;;;;;;;17.48;9.73;;;-1.50;89.00;;;;;;2032885;29;20103;-72
2021/03/09 04:01:42;;;;;;;15.95;9.68;;;-1.50;89.00;;;;;;2032846;29;20024;-72
2021/03/09 04:02:47;;;;;;;15.48;9.60;;;-1.50;89.00;;;;;;2033460;29;20044;-71
2021/03/09 04:03:51;;;;;;;16.30;10.15;;;-1.50;89.20;;;;;;2033520;29;20154;-72
2021/03/09 04:04:52;;;;;;;16.73;9.68;;;-1.50;89.30;;;;;;2033411;29;20040;-72
2021/03/09 04:05:54;;;;;;;17.58;9.82;;;-1.50;89.30;;;;;;2033521;29;20036;-71
2021/03/09 04:06:55;;;;;;;15.57;10.00;;;-1.50;89.40;;;;;;2033785;29;20020;-71
2021/03/09 04:07:56;;;;;;;17.15;10.57;;;-1.50;89.40;;;;;;2035950;28;20356;-71
2021/03/09 04:09:06;;;;;;;17.60;9.60;;;-1.50;89.40;;;;;;2039537;28;20042;-71
2021/03/09 04:10:07;;;;;;;17.02;9.48;;;-1.50;89.60;;;;;;2038947;29;20111;-70
2021/03/09 04:11:09;;;;;;;16.75;9.70;;;-1.50;89.60;;;;;;2039249;29;20043;-71
2021/03/09 04:12:10;;;;;;;18.30;10.20;;;-1.50;89.60;;;;;;2038758;29;20028;-71
2021/03/09 04:13:12;;;;;;;21.83;10.73;;;-1.50;89.70;;;;;;2038851;29;20028;-71
2021/03/09 04:14:14;;;;;;;18.48;10.25;;;-1.50;90.30;;;;;;2039173;29;20392;-71
2021/03/09 04:15:16;;;;;;;19.05;10.75;;;-1.40;90.30;;;;;;2034399;29;20055;-71
2021/03/09 04:16:17;;;;;;;15.88;9.82;;;-1.40;90.20;;;;;;2033268;29;20024;-71
2021/03/09 04:17:20;;;;;;;17.77;10.05;;;-1.40;90.00;;;;;;2034067;29;20035;-71
2021/03/09 04:18:23;;;;;;;17.27;9.80;;;-1.40;89.90;;;;;;2035289;29;20032;-71
2021/03/09 04:19:24;;;;;;;17.35;10.18;;;-1.40;89.90;;;;;;2032587;28;20476;-71
2021/03/09 04:20:26;;;;;;;17.75;9.77;;;-1.40;90.20;;;;;;2032427;29;20103;-70
2021/03/09 04:21:27;;;;;;;20.33;10.82;;;-1.40;89.70;;;;;;2039446;29;20042;-70
2021/03/09 04:22:30;;;;;;;24.10;11.57;;;-1.30;90.00;;;;;;2040211;29;20050;-71
2021/03/09 04:23:31;;;;;;;26.15;11.82;;;-1.40;89.70;;;;;;2040077;29;20468;-71
2021/03/09 04:24:33;;;;;;;26.85;11.80;;;-1.30;89.60;;;;;;2033076;28;20107;-71
2021/03/09 04:25:34;;;;;;;24.33;11.40;;;-1.30;89.30;;;;;;2032935;29;20031;-71
2021/03/09 04:26:36;;;;;;;22.55;10.35;;;-1.30;89.20;;;;;;2033458;29;20028;-70
2021/03/09 04:27:37;;;;;;;27.17;11.20;;;-1.30;89.10;;;;;;2032929;28;20067;-71
2021/03/09 04:28:39;;;;;;;27.30;11.55;;;-1.30;88.90;;;;;;2033395;29;20115;-71
2021/03/09 04:29:40;;;;;;;30.42;12.05;;;-1.30;89.40;;;;;;2032581;28;20157;-71
2021/03/09 04:30:41;;;;;;;31.25;12.30;;;-1.30;88.80;;;;;;2032127;29;20028;-72
2021/03/09 04:31:43;;;;;;;32.38;12.75;;;-1.30;88.90;;;;;;2032399;29;20039;-71
2021/03/09 04:32:43;;;;;;;32.72;13.10;;;-1.30;88.90;;;;;;2032893;29;20785;-71
2021/03/09 04:33:46;;;;;;;29.38;12.60;;;-1.30;88.80;;;;;;2033060;29;20032;-72
2021/03/09 04:34:47;;;;;;;28.85;12.63;;;-1.30;88.60;;;;;;2032843;29;20024;-73
2021/03/09 04:35:48;;;;;;;27.08;11.98;;;-1.30;88.40;;;;;;2032871;29;20103;-72
2021/03/09 04:36:50;;;;;;;25.85;11.48;;;-1.30;88.50;;;;;;2032236;28;20036;-72
2021/03/09 04:37:51;;;;;;;24.08;11.65;;;-1.30;88.50;;;;;;2024490;29;20116;-72
2021/03/09 04:38:53;;;;;;;19.38;10.73;;;-1.30;88.30;;;;;;2032383;29;20024;-71
2021/03/09 04:39:54;;;;;;;21.60;10.80;;;-1.30;88.20;;;;;;2032289;29;20036;-72
2021/03/09 04:40:56;;;;;;;18.50;10.30;;;-1.30;88.20;;;;;;2031854;29;20100;-72
2021/03/09 04:41:57;;;;;;;15.75;9.32;;;-1.20;88.30;;;;;;2032446;29;20043;-72
2021/03/09 04:42:57;;;;;;;17.15;9.95;;;-1.20;88.90;;;;;;2032678;28;20036;-72
2021/03/09 04:43:59;;;;;;;15.75;9.63;;;-1.20;87.90;;;;;;2040197;28;20032;-73
2021/03/09 04:44:59;;;;;;;15.95;9.82;;;-1.20;87.90;;;;;;2039892;29;20063;-72
2021/03/09 04:46:01;;;;;;;17.77;9.88;;;-1.20;87.90;;;;;;2032376;28;20058;-72
2021/03/09 04:47:03;;;;;;;19.08;10.25;;;-1.30;87.90;;;;;;2032251;29;20028;-72
2021/03/09 04:48:05;;;;;;;17.92;10.45;;;-1.30;87.80;;;;;;2032220;29;20028;-72
2021/03/09 04:49:06;;;;;;;17.45;9.93;;;-1.20;87.80;;;;;;2032185;29;20032;-72
2021/03/09 04:50:09;;;;;;;17.65;10.45;;;-1.20;87.90;;;;;;2032781;28;20033;-72
2021/03/09 04:51:11;;;;;;;18.88;10.32;;;-1.20;87.80;;;;;;2032250;29;20468;-71
2021/03/09 04:52:12;;;;;;;17.85;10.27;;;-1.20;87.70;;;;;;2039498;28;20031;-72
2021/03/09 04:53:12;;;;;;;16.52;10.23;;;-1.20;87.80;;;;;;2039965;29;20082;-72
2021/03/09 04:54:14;;;;;;;15.95;10.10;;;-1.20;87.80;;;;;;2032097;28;20039;-73
2021/03/09 04:55:20;;;;;;;20.65;10.75;;;-1.20;87.60;;;;;;2031985;29;20036;-71
2021/03/09 04:56:20;;;;;;;26.20;11.13;;;-1.20;87.50;;;;;;2032854;29;20099;-71
2021/03/09 04:57:35;;;;;;;19.77;10.85;;;-1.20;87.20;;;;;;2032720;28;20407;-72
2021/03/09 04:58:37;;;;;;;22.42;11.38;;;-1.20;86.80;;;;;;2032846;29;20024;-72
2021/03/09 04:59:37;;;;;;;22.55;11.35;;;-1.20;86.50;;;;;;2039889;29;20510;-72
2021/03/09 05:00:38;;;;;;;20.42;11.43;;;-1.20;86.30;;;;;;2039640;29;20062;-71
2021/03/09 05:01:38;;;;;;;21.42;11.82;;;-1.20;86.40;;;;;;2032108;28;20024;-72
2021/03/09 05:02:40;;;;;;;18.60;11.10;;;-1.20;86.30;;;;;;2038908;28;20034;-71
2021/03/09 05:03:40;;;;;;;18.42;10.95;;;-1.10;86.10;;;;;;2039331;29;20376;-72
2021/03/09 05:04:41;;;;;;;19.38;10.75;;;-1.10;86.00;;;;;;2044523;28;20035;-71
2021/03/09 05:05:41;;;;;;;20.63;11.27;;;-1.20;85.80;;;;;;2036816;29;20102;-71
2021/03/09 05:06:42;;;;;;;22.60;11.73;;;-1.10;85.60;;;;;;2028577;28;20035;-71
2021/03/09 05:07:43;;;;;;;22.70;11.57;;;-1.20;86.40;;;;;;2040738;29;20036;-71
2021/03/09 05:08:44;;;;;;;21.48;11.95;;;-1.20;85.50;;;;;;2041331;29;20074;-71
2021/03/09 05:09:44;;;;;;;27.58;12.93;;;-1.10;85.60;;;;;;2036191;29;20028;-71
2021/03/09 05:10:45;;;;;;;30.17;14.35;;;-1.10;85.50;;;;;;2032704;28;20036;-71
2021/03/09 05:11:47;;;;;;;26.77;13.23;;;-1.20;86.10;;;;;;2032296;29;20052;-71
2021/03/09 05:12:49;;;;;;;25.80;12.88;;;-1.20;85.30;;;;;;2039929;28;20082;-72
2021/03/09 05:13:50;;;;;;;26.05;13.07;;;-1.10;85.30;;;;;;2039946;28;20070;-72
2021/03/09 05:14:50;;;;;;;24.02;12.32;;;-1.20;85.10;;;;;;2040022;29;20117;-72
2021/03/09 05:15:51;;;;;;;21.58;11.70;;;-1.10;85.10;;;;;;2039892;28;20517;-72
2021/03/09 05:16:51;;;;;;;21.92;11.38;;;-1.20;85.00;;;;;;2039902;29;20526;-72
2021/03/09 05:17:52;;;;;;;24.73;12.55;;;-1.10;85.00;;;;;;2032629;29;20078;-72
2021/03/09 05:18:53;;;;;;;21.58;12.13;;;-1.20;85.00;;;;;;2032876;28;20032;-72
2021/03/09 05:19:53;;;;;;;22.92;11.23;;;-1.10;85.20;;;;;;2033218;28;20494;-72
2021/03/09 05:20:54;;;;;;;22.00;11.30;;;-1.10;85.30;;;;;;2040079;28;20028;-73
2021/03/09 05:21:54;;;;;;;20.20;11.52;;;-1.10;85.20;;;;;;2040012;29;20034;-72